»·PEaware :: N2775 KEMT-KPSP

N2775 :: KEMT-KPSP

FLIGHT INFORMATION

Flight Status: Arrived
Operator: Privately registered:
United States
More flights under this callsign
Pilot: Robert M. (27798)
Aircraft: CESSNA 172 SKYHAWK
(C172)
More flights by this aircraft type
Origin: KEMT El Monte
United States
Destination: KPSP Palm Springs Intl
United States
More flights between these airports :: More routes between these airports
Route:
File this flight plan on PilotEdge
Remarks:
Altitude:
(Current/Filed)
7,500ft
Speed:
(Current/Filed)
0kts
Departed: 22-Feb-21 04:43 PM
Arrived: 22-Feb-21 05:34 PM
Distance/Time
Traveled:
77nm/0:51
Distance/Time
To Go:
Arrived

Flight Plot

Page will automatically refresh every two minutes.


Map Options




Map Legend


Flown Route
Filed Route
Departure Airport
Arrival Airport
Navaid (VOR, NDB)
Fix

Horizontal Profiles

Position Reports

Time Latitude Longitude Heading Altitude Ground
Speed
22-Feb-21 16:35 34.086443 -118.032895 24 293ft 0kts
22-Feb-21 16:36 34.086443 -118.032895 24 293ft 0kts
22-Feb-21 16:37 34.086443 -118.032895 24 293ft 0kts
22-Feb-21 16:38 34.086443 -118.032895 24 293ft 0kts
22-Feb-21 16:39 34.086952 -118.033548 322 294ft 0kts
22-Feb-21 16:40 34.089772 -118.032004 25 295ft 12kts
22-Feb-21 16:40 34.090735 -118.031623 304 297ft 0kts
22-Feb-21 16:42 34.090738 -118.032141 210 297ft 0kts
22-Feb-21 16:43 34.079045 -118.039207 213 626ft 63kts
22-Feb-21 16:44 34.065916 -118.037415 102 1311ft 75kts
22-Feb-21 16:44 34.063647 -118.019502 94 1837ft 77kts
22-Feb-21 16:46 34.063173 -117.989584 91 2708ft 75kts
22-Feb-21 16:46 34.063759 -117.968562 84 3287ft 75kts
22-Feb-21 16:47 34.066655 -117.943660 83 3943ft 74kts
22-Feb-21 16:49 34.070200 -117.914907 82 4660ft 74kts
22-Feb-21 16:49 34.068696 -117.894631 107 5150ft 73kts
22-Feb-21 16:50 34.061542 -117.871864 118 5705ft 72kts
22-Feb-21 16:51 34.054959 -117.849731 102 6233ft 73kts
22-Feb-21 16:52 34.050671 -117.819952 100 6372ft 117kts
22-Feb-21 16:53 34.044850 -117.779171 100 6353ft 127kts
22-Feb-21 16:54 34.038686 -117.738820 104 6359ft 127kts
22-Feb-21 16:55 34.030486 -117.699827 105 6361ft 128kts
22-Feb-21 16:56 34.021675 -117.658342 104 6361ft 128kts
22-Feb-21 16:57 34.014637 -117.616840 100 6361ft 128kts
22-Feb-21 16:58 34.009160 -117.574569 99 6361ft 128kts
22-Feb-21 16:59 34.002282 -117.532550 103 6362ft 128kts
22-Feb-21 17:00 33.994524 -117.490706 103 6362ft 128kts
22-Feb-21 17:01 33.987559 -117.449041 99 6362ft 128kts
22-Feb-21 17:02 33.982624 -117.406471 98 6361ft 128kts
22-Feb-21 17:03 33.977272 -117.364669 106 6360ft 128kts
22-Feb-21 17:04 33.966674 -117.324228 104 6363ft 128kts
22-Feb-21 17:05 33.961520 -117.294059 101 6368ft 128kts
22-Feb-21 17:06 33.954835 -117.251536 101 6356ft 128kts
22-Feb-21 17:07 33.950618 -117.224398 101 6362ft 128kts
22-Feb-21 17:08 33.947102 -117.201749 101 6361ft 128kts
22-Feb-21 17:09 33.946578 -117.198374 101 6363ft 128kts
22-Feb-21 17:10 33.942594 -117.172686 101 6361ft 128kts
22-Feb-21 17:11 33.936044 -117.130428 101 6361ft 128kts
22-Feb-21 17:12 33.928625 -117.088413 104 6361ft 128kts
22-Feb-21 17:13 33.920558 -117.047773 104 6362ft 128kts
22-Feb-21 17:14 33.916012 -117.025019 104 6361ft 128kts
22-Feb-21 17:15 33.912182 -117.005811 104 6362ft 128kts
22-Feb-21 17:16 33.910739 -116.998580 104 6362ft 128kts
22-Feb-21 17:17 33.908409 -116.986892 104 6360ft 128kts
22-Feb-21 17:18 33.905127 -116.970420 104 6361ft 128kts
22-Feb-21 17:19 33.899474 -116.942060 104 6363ft 128kts
22-Feb-21 17:20 33.895255 -116.899388 94 6360ft 128kts
22-Feb-21 17:21 33.890692 -116.857040 105 6360ft 127kts
22-Feb-21 17:22 33.881530 -116.816069 106 6361ft 127kts
22-Feb-21 17:23 33.876633 -116.774230 88 6368ft 128kts
22-Feb-21 17:24 33.878435 -116.731512 87 6368ft 128kts
22-Feb-21 17:25 33.872076 -116.689911 106 6362ft 126kts
22-Feb-21 17:26 33.865622 -116.648400 98 6043ft 125kts
22-Feb-21 17:27 33.864484 -116.602633 87 4790ft 139kts
22-Feb-21 17:28 33.866912 -116.555915 92 3273ft 131kts
22-Feb-21 17:29 33.857948 -116.520837 120 2493ft 106kts
22-Feb-21 17:30 33.835248 -116.495467 144 1834ft 112kts
22-Feb-21 17:31 33.810364 -116.474031 171 1515ft 102kts
22-Feb-21 17:32 33.819045 -116.498213 321 510ft 111kts
22-Feb-21 17:33 33.828809 -116.508101 248 437ft 0kts
22-Feb-21 17:34 33.828671 -116.509636 269 440ft 10kts
22-Feb-21 17:35 33.828374 -116.509167 357 439ft 0kts

Navigation Log

Ident Type
Flight plan parsing failed, navigation log unavailable